Time;durP1;ratioP1;P1;durP2;ratioP2;P2;SDS_P1;SDS_P2;PMS_P1;PMS_P2;Temp;Humidity;BMP_temperature;BMP_pressure;BME280_temperature;BME280_humidity;BME280_pressure;Samples;Min_cycle;Max_cycle;Signal;HPM_P1;HPM_P2
2022/10/15 00:05:23;;;;;;;4.40;2.30;;;;;;;17.47;100.00;100377.69;20858249;27;20118;-75
2022/10/15 00:15:24;;;;;;;2.60;1.83;;;;;;;17.12;100.00;100311.13;20862746;27;20124;-75
2022/10/15 00:25:26;;;;;;;2.47;1.77;;;;;;;17.19;100.00;100315.75;21022226;27;20499;-75
2022/10/15 00:35:27;;;;;;;3.53;1.95;;;;;;;17.45;100.00;100358.16;20851974;27;20077;-76
2022/10/15 00:45:29;;;;;;;3.45;1.92;;;;;;;17.39;100.00;100339.91;20909745;27;20053;-76
2022/10/15 00:55:32;;;;;;;1.90;1.55;;;;;;;17.45;100.00;100363.53;20855215;27;20613;-76
2022/10/15 01:05:36;;;;;;;3.08;2.15;;;;;;;17.09;100.00;100302.34;20860963;27;20502;-76
2022/10/15 01:15:49;;;;;;;2.53;1.92;;;;;;;17.45;100.00;100350.09;20897149;27;20491;-76
2022/10/15 01:26:10;;;;;;;2.77;1.73;;;;;;;17.34;100.00;100339.50;20898039;27;20043;-76
2022/10/15 01:36:17;;;;;;;3.30;1.88;;;;;;;17.21;100.00;100296.78;20860192;27;20706;-76
2022/10/15 01:46:23;;;;;;;1.77;1.60;;;;;;;17.44;100.00;100334.94;20829417;27;20045;-76
2022/10/15 01:56:35;;;;;;;;;;;;;;;17.44;100.00;100329.56;20844697;27;20087;-76
2022/10/15 02:06:40;;;;;;;2.25;1.88;;;;;;;17.44;100.00;100326.88;20816853;27;19921;-76
2022/10/15 02:16:49;;;;;;;2.28;1.70;;;;;;;17.42;100.00;100320.78;20903651;27;20612;-76
2022/10/15 02:26:53;;;;;;;2.17;1.60;;;;;;;17.43;100.00;100305.47;20848324;27;20386;-76
2022/10/15 02:37:01;;;;;;;2.35;1.60;;;;;;;17.37;100.00;100285.41;20841556;27;20408;-75
2022/10/15 02:47:02;;;;;;;3.30;1.85;;;;;;;17.42;100.00;100288.50;20821857;27;20052;-76
2022/10/15 02:57:04;;;;;;;1.83;1.42;;;;;;;17.43;100.00;100289.34;20827300;27;20552;-76
2022/10/15 03:07:06;;;;;;;2.35;1.55;;;;;;;17.43;100.00;100281.25;20919334;27;20063;-75
2022/10/15 03:17:07;;;;;;;2.22;1.48;;;;;;;17.43;100.00;100283.94;20951555;27;20556;-76
2022/10/15 03:27:09;;;;;;;2.00;1.45;;;;;;;17.24;100.00;100248.06;20859253;27;20049;-76
2022/10/15 03:37:11;;;;;;;2.13;1.70;;;;;;;17.42;100.00;100277.75;20877677;27;20052;-76
2022/10/15 03:47:13;;;;;;;2.00;1.80;;;;;;;17.42;100.00;100261.59;20854377;27;20128;-75
2022/10/15 03:57:19;;;;;;;2.05;1.60;;;;;;;17.42;100.00;100256.22;20773609;27;20193;-76
2022/10/15 04:07:26;;;;;;;1.75;1.30;;;;;;;17.41;100.00;100259.91;20835572;27;20053;-76
2022/10/15 04:17:28;;;;;;;2.40;1.48;;;;;;;17.30;100.00;100252.03;20834229;27;20121;-76
2022/10/15 04:27:30;;;;;;;1.75;1.40;;;;;;;17.33;100.00;100252.56;20854250;27;20061;-76
2022/10/15 04:37:39;;;;;;;1.65;1.35;;;;;;;17.32;100.00;100250.88;20847371;27;21506;-76
2022/10/15 04:47:44;;;;;;;2.53;1.50;;;;;;;17.39;100.00;100262.72;20830732;27;20037;-75
2022/10/15 04:57:50;;;;;;;1.40;1.17;;;;;;;17.40;100.00;100253.66;20781115;27;20514;-76
2022/10/15 05:08:02;;;;;;;3.03;1.90;;;;;;;17.40;100.00;100252.81;20727290;27;20056;-75
2022/10/15 05:18:07;;;;;;;2.30;1.88;;;;;;;17.23;100.00;100225.72;20721873;27;20102;-76
2022/10/15 05:28:18;;;;;;;3.90;2.20;;;;;;;17.29;100.00;100221.56;20720606;27;20049;-75
2022/10/15 05:38:20;;;;;;;1.95;1.67;;;;;;;17.61;100.00;100260.66;20776560;27;20050;-75
2022/10/15 05:48:22;;;;;;;4.68;1.95;;;;;;;17.63;100.00;100269.41;20840272;27;20069;-76
2022/10/15 05:58:25;;;;;;;2.50;2.00;;;;;;;17.65;100.00;100255.78;20970729;27;20052;-75
2022/10/15 06:08:28;;;;;;;1.85;1.50;;;;;;;17.67;100.00;100269.94;20797363;27;20132;-75
2022/10/15 06:18:30;;;;;;;1.65;1.40;;;;;;;17.69;100.00;100267.97;20807517;27;20080;-75
2022/10/15 06:28:32;;;;;;;2.08;1.65;;;;;;;17.62;100.00;100264.16;20804772;27;20462;-75
2022/10/15 06:38:33;;;;;;;2.63;1.52;;;;;;;17.56;100.00;100248.63;20904507;27;20095;-76
2022/10/15 06:48:35;;;;;;;1.98;1.60;;;;;;;17.70;100.00;100269.69;20751608;27;20045;-76
2022/10/15 06:58:36;;;;;;;1.63;1.40;;;;;;;17.71;100.00;100279.44;20766713;27;20116;-76
2022/10/15 07:08:38;;;;;;;3.35;2.00;;;;;;;17.62;100.00;100254.25;20752241;27;20460;-75
2022/10/15 07:18:39;;;;;;;3.38;2.15;;;;;;;17.71;100.00;100276.75;20756903;27;20056;-76
2022/10/15 07:28:41;;;;;;;2.10;1.55;;;;;;;17.64;100.00;100270.25;20757471;27;20046;-76
2022/10/15 07:38:42;;;;;;;2.58;1.60;;;;;;;17.01;100.00;100172.31;20742658;27;20136;-76
2022/10/15 07:48:44;;;;;;;2.67;1.70;;;;;;;17.61;100.00;100274.09;20752764;27;20057;-75
2022/10/15 07:58:50;;;;;;;3.75;1.40;;;;;;;17.48;100.00;100258.31;20749647;27;20057;-76
2022/10/15 08:08:52;;;;;;;2.42;1.58;;;;;;;17.29;100.00;100229.63;20741605;27;20073;-76
2022/10/15 08:18:54;;;;;;;3.42;1.83;;;;;;;17.18;100.00;100198.41;20765629;27;20064;-76
2022/10/15 08:28:56;;;;;;;2.13;1.65;;;;;;;17.54;100.00;100255.00;20732311;27;20770;-76
2022/10/15 08:38:57;;;;;;;5.40;2.58;;;;;;;17.51;100.00;100244.53;20739677;27;20037;-76
2022/10/15 08:49:00;;;;;;;4.93;2.72;;;;;;;17.54;100.00;100244.25;20750273;27;20069;-75
2022/10/15 08:59:23;;;;;;;4.07;2.58;;;;;;;17.57;100.00;100251.19;20744278;27;20140;-75
2022/10/15 09:09:43;;;;;;;4.18;2.72;;;;;;;17.71;100.00;100267.81;20737570;27;20098;-76
2022/10/15 09:19:48;;;;;;;4.13;2.90;;;;;;;17.72;100.00;100273.06;20748809;27;20053;-76
2022/10/15 09:29:57;;;;;;;3.13;2.00;;;;;;;17.77;100.00;100291.44;20783682;27;20073;-76
2022/10/15 09:40:07;;;;;;;5.10;2.80;;;;;;;17.71;100.00;100279.44;20776394;27;20088;-76
2022/10/15 09:50:12;;;;;;;3.10;2.22;;;;;;;17.67;100.00;100267.25;20746956;27;20437;-76
2022/10/15 10:00:14;;;;;;;5.15;2.88;;;;;;;17.54;100.00;100252.31;20757427;27;20048;-76
2022/10/15 10:10:23;;;;;;;3.30;2.40;;;;;;;17.60;100.00;100258.09;20777105;27;20060;-77
2022/10/15 10:20:27;;;;;;;2.80;1.85;;;;;;;17.59;100.00;100267.16;20775545;27;20132;-76
2022/10/15 10:30:33;;;;;;;3.63;2.60;;;;;;;17.12;100.00;100179.34;20740782;27;20069;-76
2022/10/15 10:40:35;;;;;;;4.00;2.50;;;;;;;17.47;100.00;100226.16;20780212;27;20050;-76
2022/10/15 10:50:42;;;;;;;2.80;2.15;;;;;;;17.57;100.00;100220.72;20781821;27;20121;-76
2022/10/15 11:00:46;;;;;;;2.83;1.90;;;;;;;17.39;100.00;100173.94;20809461;27;20132;-76
2022/10/15 11:10:56;;;;;;;2.83;2.10;;;;;;;17.56;100.00;100197.50;20773035;27;20093;-76
2022/10/15 11:21:19;;;;;;;2.67;2.10;;;;;;;17.53;100.00;100183.34;20766982;27;20378;-76
2022/10/15 11:31:41;;;;;;;2.95;2.05;;;;;;;17.43;100.00;100161.03;20733284;27;20042;-76
2022/10/15 11:42:15;;;;;;;2.58;2.35;;;;;;;17.53;100.00;100167.19;20728408;27;20057;-78
2022/10/15 11:52:34;;;;;;;3.35;2.60;;;;;;;17.53;100.00;100158.28;20745917;27;20057;-76
2022/10/15 12:02:37;;;;;;;2.95;2.10;;;;;;;17.53;100.00;100145.66;20731064;27;20058;-76
2022/10/15 12:13:07;;;;;;;2.92;2.20;;;;;;;17.54;100.00;100144.66;20748137;27;20504;-76
2022/10/15 12:23:37;;;;;;;3.35;2.75;;;;;;;17.34;100.00;100102.75;20771620;27;20493;-75
2022/10/15 12:33:46;;;;;;;3.47;2.08;;;;;;;17.33;100.00;100074.16;20749933;27;20525;-75
2022/10/15 12:43:53;;;;;;;2.45;2.15;;;;;;;17.36;100.00;100081.94;20720873;27;20057;-76
2022/10/15 12:53:59;;;;;;;1.80;1.65;;;;;;;17.37;100.00;100070.16;20742414;27;20063;-75
2022/10/15 13:04:00;;;;;;;4.00;2.30;;;;;;;17.24;100.00;100028.34;20737563;27;20041;-75
2022/10/15 13:14:15;;;;;;;2.70;1.85;;;;;;;17.67;100.00;100073.44;20730923;27;21083;-75
2022/10/15 13:24:20;;;;;;;2.87;2.00;;;;;;;17.53;100.00;100043.41;20722613;27;20060;-75
2022/10/15 13:34:27;;;;;;;2.93;2.03;;;;;;;17.66;100.00;100053.78;20711577;27;20056;-76
2022/10/15 13:44:29;;;;;;;2.22;2.00;;;;;;;17.67;100.00;100068.91;20712324;27;20054;-76
2022/10/15 13:54:30;;;;;;;2.67;2.15;;;;;;;17.73;100.00;100064.78;20712605;27;20055;-76
2022/10/15 14:04:32;;;;;;;3.17;2.00;;;;;;;17.53;100.00;100054.16;20725369;27;20129;-76
2022/10/15 14:14:45;;;;;;;3.47;1.70;;;;;;;17.66;100.00;100066.38;20733711;27;20138;-76
2022/10/15 14:24:47;;;;;;;3.47;1.75;;;;;;;17.55;100.00;100056.72;20725660;27;20132;-75
2022/10/15 14:34:50;;;;;;;3.08;2.45;;;;;;;17.77;100.00;100089.53;20723160;27;20054;-76
2022/10/15 14:44:54;;;;;;;3.53;2.55;;;;;;;17.80;100.00;100092.75;20715784;27;20774;-76
2022/10/15 14:55:14;;;;;;;2.27;1.43;;;;;;;17.65;100.00;100072.75;20705473;27;20050;-77
2022/10/15 15:05:20;;;;;;;4.63;1.73;;;;;;;17.86;100.00;100103.91;20741324;27;20414;-75
2022/10/15 15:15:23;;;;;;;3.10;1.98;;;;;;;17.87;100.00;100108.28;20740834;27;20052;-75
2022/10/15 15:25:32;;;;;;;5.78;2.20;;;;;;;17.83;100.00;100096.97;20706962;27;20132;-74
2022/10/15 15:35:49;;;;;;;4.75;2.08;;;;;;;17.79;100.00;100093.75;20714735;27;20053;-75
2022/10/15 15:45:51;;;;;;;3.40;2.10;;;;;;;17.76;100.00;100103.97;20699758;27;20050;-75
2022/10/15 15:55:52;;;;;;;5.03;2.40;;;;;;;17.73;100.00;100129.38;20704243;27;20133;-75
2022/10/15 16:05:54;;;;;;;3.78;2.80;;;;;;;17.71;100.00;100142.16;20711695;27;20057;-74
2022/10/15 16:15:56;;;;;;;4.15;3.22;;;;;;;17.69;100.00;100152.22;20691377;27;21086;-75
2022/10/15 16:25:57;;;;;;;8.10;4.18;;;;;;;17.67;100.00;100173.03;20682499;27;20064;-75
2022/10/15 16:35:59;;;;;;;6.40;4.03;;;;;;;17.67;100.00;100194.56;20722183;27;20406;-75
2022/10/15 16:46:01;;;;;;;3.97;3.42;;;;;;;17.64;100.00;100200.25;20710066;27;20102;-75
2022/10/15 16:56:06;;;;;;;6.43;3.60;;;;;;;17.60;100.00;100206.94;20704169;27;20706;-75
2022/10/15 17:06:10;;;;;;;4.73;4.03;;;;;;;17.64;100.00;100235.25;20676797;27;20052;-75
2022/10/15 17:16:18;;;;;;;7.70;4.27;;;;;;;17.62;100.00;100256.97;20718953;27;20136;-76
2022/10/15 17:26:22;;;;;;;4.82;4.22;;;;;;;17.62;100.00;100283.00;20704446;27;20053;-75
2022/10/15 17:36:24;;;;;;;4.85;3.90;;;;;;;17.61;100.00;100297.47;20702332;27;20064;-76
2022/10/15 17:46:27;;;;;;;5.38;4.38;;;;;;;17.61;100.00;100313.63;20733791;27;20053;-76
2022/10/15 17:56:31;;;;;;;5.55;4.63;;;;;;;17.29;100.00;100272.69;20749661;27;20049;-75
2022/10/15 18:06:32;;;;;;;6.35;4.78;;;;;;;17.50;100.00;100334.34;20867262;27;20057;-76
2022/10/15 18:16:34;;;;;;;9.45;4.68;;;;;;;17.48;100.00;100355.19;20700525;28;20057;-75
2022/10/15 18:26:35;;;;;;;9.07;5.00;;;;;;;17.59;100.00;100378.38;20705480;28;20049;-76
2022/10/15 18:36:40;;;;;;;5.60;4.25;;;;;;;17.19;100.00;100313.06;20710618;28;20054;-75
2022/10/15 18:46:43;;;;;;;6.60;4.70;;;;;;;17.59;100.00;100377.50;20711648;28;20523;-76
2022/10/15 18:56:45;;;;;;;6.65;4.70;;;;;;;17.13;100.00;100318.19;21001634;27;20129;-75
2022/10/15 19:06:49;;;;;;;6.13;4.40;;;;;;;17.57;100.00;100399.22;21222416;27;20050;-75
2022/10/15 19:16:51;;;;;;;7.22;4.72;;;;;;;17.22;100.00;100345.03;21217336;27;20071;-76
2022/10/15 19:26:52;;;;;;;5.65;4.60;;;;;;;17.56;100.00;100397.53;21221681;27;20058;-75
2022/10/15 19:36:54;;;;;;;7.18;4.70;;;;;;;17.38;100.00;100365.97;20892327;27;20045;-76
2022/10/15 19:46:55;;;;;;;6.45;4.45;;;;;;;17.57;100.00;100401.03;20790118;27;20512;-76
2022/10/15 19:56:57;;;;;;;6.38;4.47;;;;;;;17.44;100.00;100396.84;21070817;27;20074;-76
2022/10/15 20:06:58;;;;;;;7.38;4.80;;;;;;;17.56;100.00;100426.25;21216935;27;20047;-76
2022/10/15 20:17:00;;;;;;;6.15;4.70;;;;;;;17.54;100.00;100432.63;21018880;27;20052;-75
2022/10/15 20:27:01;;;;;;;9.65;5.20;;;;;;;17.53;100.00;100447.09;20860500;27;20044;-76
2022/10/15 20:37:03;;;;;;;7.22;4.60;;;;;;;17.54;100.00;100443.41;20864328;27;20053;-76
2022/10/15 20:47:08;;;;;;;5.25;3.88;;;;;;;17.53;100.00;100468.63;20844486;27;20056;-75
2022/10/15 20:57:09;;;;;;;6.63;4.72;;;;;;;17.10;100.00;100395.50;20873039;27;20054;-76
2022/10/15 21:07:11;;;;;;;6.72;4.10;;;;;;;17.53;100.00;100459.72;20886057;27;20047;-75
2022/10/15 21:17:12;;;;;;;8.43;4.22;;;;;;;17.53;100.00;100468.63;20828889;27;20573;-75
2022/10/15 21:27:14;;;;;;;6.28;4.25;;;;;;;17.52;100.00;100480.38;20792981;27;20578;-75
2022/10/15 21:37:15;;;;;;;6.78;4.38;;;;;;;17.38;100.00;100470.06;20910480;27;20089;-76
2022/10/15 21:47:17;;;;;;;5.55;4.22;;;;;;;17.36;100.00;100466.69;20931696;27;20465;-76
2022/10/15 21:57:18;;;;;;;6.25;4.28;;;;;;;17.52;100.00;100504.59;20849921;27;20045;-76
2022/10/15 22:07:20;;;;;;;5.57;3.65;;;;;;;17.52;100.00;100514.53;20858965;27;20518;-76
2022/10/15 22:17:21;;;;;;;6.38;4.65;;;;;;;17.50;100.00;100522.75;20831017;27;20408;-76
2022/10/15 22:27:25;;;;;;;5.78;3.78;;;;;;;17.46;100.00;100524.03;20906085;27;20422;-76
2022/10/15 22:37:26;;;;;;;4.60;3.53;;;;;;;17.50;100.00;100536.19;20885880;27;20130;-76
2022/10/15 22:47:28;;;;;;;4.47;3.42;;;;;;;17.43;100.00;100537.75;20893826;27;20053;-76
2022/10/15 22:57:29;;;;;;;5.03;3.28;;;;;;;17.50;100.00;100549.66;20918319;27;20053;-75
2022/10/15 23:07:30;;;;;;;3.88;3.05;;;;;;;17.45;100.00;100529.53;20915230;27;20053;-75
2022/10/15 23:17:32;;;;;;;5.75;3.33;;;;;;;17.41;100.00;100523.59;20875281;27;20432;-76
2022/10/15 23:27:33;;;;;;;4.13;2.65;;;;;;;17.50;100.00;100528.13;20882524;27;20061;-76
2022/10/15 23:37:39;;;;;;;5.03;3.40;;;;;;;17.49;100.00;100542.56;20801620;27;20048;-76
2022/10/15 23:47:41;;;;;;;3.45;2.60;;;;;;;17.50;100.00;100541.56;20827993;27;20080;-75
2022/10/15 23:57:42;;;;;;;4.13;2.55;;;;;;;17.44;100.00;100523.31;20839407;27;20051;-76
